createdAt,value
2018-09-22T00:00:50.079Z,21.72
2018-09-22T00:03:11.352Z,21.7
2018-09-22T00:04:11.966Z,21.69
2018-09-22T00:05:11.609Z,21.71
2018-09-22T00:06:11.738Z,21.71
2018-09-22T00:07:11.730Z,21.69
2018-09-22T00:08:11.527Z,21.7
2018-09-22T00:09:11.694Z,21.71
2018-09-22T00:10:11.675Z,21.7
2018-09-22T00:11:11.979Z,21.7
2018-09-22T00:12:11.442Z,21.71
2018-09-22T00:13:11.628Z,21.69
2018-09-22T00:15:33.083Z,21.68
2018-09-22T00:16:33.263Z,21.68
2018-09-22T00:17:33.594Z,21.68
2018-09-22T00:18:33.351Z,21.69
2018-09-22T00:19:33.496Z,21.69
2018-09-22T00:20:33.387Z,21.68
2018-09-22T00:21:33.780Z,21.68
2018-09-22T00:22:33.327Z,21.68
2018-09-22T00:23:33.344Z,21.69
2018-09-22T00:24:33.477Z,21.68
2018-09-22T00:25:33.434Z,21.68
2018-09-22T00:27:54.872Z,21.68
2018-09-22T00:28:54.930Z,21.68
2018-09-22T00:29:54.890Z,21.69
2018-09-22T00:30:54.982Z,21.69
2018-09-22T00:31:54.906Z,21.68
2018-09-22T00:32:55.165Z,21.67
2018-09-22T00:33:54.848Z,21.68
2018-09-22T00:34:55.288Z,21.67
2018-09-22T00:35:55.038Z,21.68
2018-09-22T00:36:55.037Z,21.67
2018-09-22T00:37:54.853Z,21.67
2018-09-22T00:40:16.638Z,21.67
2018-09-22T00:41:16.854Z,21.68
2018-09-22T00:42:16.805Z,21.68
2018-09-22T00:43:16.713Z,21.67
2018-09-22T00:44:16.851Z,21.67
2018-09-22T00:45:16.815Z,21.67
2018-09-22T00:46:16.781Z,21.67
2018-09-22T00:47:17.133Z,21.67
2018-09-22T00:48:16.777Z,21.67
2018-09-22T00:49:16.551Z,21.67
2018-09-22T00:50:16.867Z,21.66
2018-09-22T00:52:38.317Z,21.65
2018-09-22T00:53:38.336Z,21.66
2018-09-22T00:54:38.655Z,21.65
2018-09-22T00:55:38.449Z,21.66
2018-09-22T00:56:38.979Z,21.65
2018-09-22T00:57:38.497Z,21.66
2018-09-22T00:58:38.644Z,21.66
2018-09-22T00:59:38.698Z,21.65
2018-09-22T01:00:38.500Z,21.66
2018-09-22T01:01:38.459Z,21.65
2018-09-22T01:02:38.883Z,21.66
2018-09-22T01:05:00.104Z,21.65
2018-09-22T01:06:00.076Z,21.64
2018-09-22T01:07:00.153Z,21.64
2018-09-22T01:08:00.416Z,21.64
2018-09-22T01:09:00.191Z,21.65
2018-09-22T01:10:00.220Z,21.64
2018-09-22T01:11:00.426Z,21.64
2018-09-22T01:12:00.093Z,21.64
2018-09-22T01:13:00.439Z,21.63
2018-09-22T01:14:00.194Z,21.64
2018-09-22T01:15:00.101Z,21.63
2018-09-22T01:17:21.598Z,21.64
2018-09-22T01:18:21.704Z,21.64
2018-09-22T01:19:21.734Z,21.63
2018-09-22T01:20:21.736Z,21.63
2018-09-22T01:21:21.839Z,21.63
2018-09-22T01:22:21.745Z,21.61
2018-09-22T01:23:21.804Z,21.62
2018-09-22T01:24:21.948Z,21.62
2018-09-22T01:25:21.829Z,21.62
2018-09-22T01:26:21.787Z,21.62
2018-09-22T01:27:21.786Z,21.62
2018-09-22T01:29:43.333Z,21.61
2018-09-22T01:30:43.376Z,21.62
2018-09-22T01:31:43.430Z,21.62
2018-09-22T01:32:43.467Z,21.63
2018-09-22T01:33:43.497Z,21.63
2018-09-22T01:34:43.449Z,21.62
2018-09-22T01:35:43.524Z,21.61
2018-09-22T01:36:43.647Z,21.61
2018-09-22T01:37:43.541Z,21.61
2018-09-22T01:38:43.296Z,21.6
2018-09-22T01:39:43.578Z,21.6
2018-09-22T01:42:04.883Z,21.61
2018-09-22T01:43:05.244Z,21.61
2018-09-22T01:44:05.352Z,21.61
2018-09-22T01:45:05.302Z,21.61
2018-09-22T01:46:05.142Z,21.61
2018-09-22T01:47:05.147Z,21.6
2018-09-22T01:48:05.207Z,21.61
2018-09-22T01:49:05.169Z,21.61
2018-09-22T01:50:05.167Z,21.61
2018-09-22T01:51:05.402Z,21.61
2018-09-22T01:52:05.015Z,21.6
2018-09-22T01:54:26.718Z,21.61
2018-09-22T01:55:26.828Z,21.6
2018-09-22T01:56:26.886Z,21.6
2018-09-22T01:57:27.060Z,21.61
2018-09-22T01:58:27.085Z,21.6
2018-09-22T01:59:26.760Z,21.6
2018-09-22T02:00:26.869Z,21.6
2018-09-22T02:01:27.253Z,21.6
2018-09-22T02:02:27.207Z,21.59
2018-09-22T02:03:27.575Z,21.58
2018-09-22T02:04:26.926Z,21.59
2018-09-22T02:06:48.305Z,21.59
2018-09-22T02:07:48.605Z,21.59
2018-09-22T02:08:48.558Z,21.59
2018-09-22T02:09:48.770Z,21.59
2018-09-22T02:10:48.699Z,21.58
2018-09-22T02:11:48.736Z,21.58
2018-09-22T02:12:48.621Z,21.58
2018-09-22T02:13:48.577Z,21.57
2018-09-22T02:14:49.016Z,21.57
2018-09-22T02:15:48.481Z,21.57
2018-09-22T02:16:48.486Z,21.57
2018-09-22T02:21:10.103Z,21.58
2018-09-22T02:22:10.263Z,21.58
2018-09-22T02:23:10.544Z,21.57
2018-09-22T02:24:10.329Z,21.57
2018-09-22T02:25:10.231Z,21.57
2018-09-22T02:26:10.377Z,21.56
2018-09-22T02:27:10.333Z,21.57
2018-09-22T02:28:10.335Z,21.57
2018-09-22T02:29:10.286Z,21.57
2018-09-22T02:30:10.414Z,21.57
2018-09-22T02:31:10.330Z,21.57
2018-09-22T02:33:32.011Z,21.56
2018-09-22T02:34:31.925Z,21.56
2018-09-22T02:35:31.920Z,21.56
2018-09-22T02:36:32.174Z,21.56
2018-09-22T02:37:32.253Z,21.55
2018-09-22T02:38:31.937Z,21.55
2018-09-22T02:39:31.999Z,21.56
2018-09-22T02:40:32.019Z,21.54
2018-09-22T02:41:32.210Z,21.56
2018-09-22T02:42:32.124Z,21.56
2018-09-22T02:43:31.834Z,21.55
2018-09-22T02:47:53.607Z,21.54
2018-09-22T02:48:53.654Z,21.55
2018-09-22T02:49:53.602Z,21.54
2018-09-22T02:50:53.662Z,21.55
2018-09-22T02:51:53.722Z,21.55
2018-09-22T02:52:53.683Z,21.54
2018-09-22T02:53:53.690Z,21.55
2018-09-22T02:54:53.653Z,21.54
2018-09-22T02:55:53.726Z,21.53
2018-09-22T02:56:53.721Z,21.54
2018-09-22T02:57:53.697Z,21.54
2018-09-22T03:02:15.266Z,21.54
2018-09-22T03:03:15.717Z,21.54
2018-09-22T03:04:15.682Z,21.53
2018-09-22T03:05:15.474Z,21.54
2018-09-22T03:06:15.500Z,21.53
2018-09-22T03:07:15.453Z,21.52
2018-09-22T03:08:15.147Z,21.53
2018-09-22T03:09:15.573Z,21.52
2018-09-22T03:10:15.419Z,21.52
2018-09-22T03:11:15.481Z,21.52
2018-09-22T03:12:15.460Z,21.52
2018-09-22T03:16:37.173Z,21.52
2018-09-22T03:17:36.980Z,21.52
2018-09-22T03:18:37.099Z,21.52
2018-09-22T03:19:37.055Z,21.52
2018-09-22T03:20:37.098Z,21.51
2018-09-22T03:21:37.108Z,21.52
2018-09-22T03:22:37.067Z,21.51
2018-09-22T03:23:37.134Z,21.51
2018-09-22T03:24:37.103Z,21.52
2018-09-22T03:25:37.194Z,21.52
2018-09-22T03:26:38.599Z,21.51
2018-09-22T03:29:04.580Z,21.5
2018-09-22T03:30:04.598Z,21.51
2018-09-22T03:31:04.662Z,21.49
2018-09-22T03:32:04.445Z,21.49
2018-09-22T03:33:04.302Z,21.5
2018-09-22T03:34:04.975Z,21.51
2018-09-22T03:35:04.306Z,21.5
2018-09-22T03:36:04.234Z,21.5
2018-09-22T03:37:04.334Z,21.5
2018-09-22T03:38:04.331Z,21.5
2018-09-22T03:39:04.457Z,21.5
2018-09-22T03:43:31.701Z,21.5
2018-09-22T03:44:31.709Z,21.5
2018-09-22T03:45:31.824Z,21.49
2018-09-22T03:46:31.869Z,21.5
2018-09-22T03:47:31.865Z,21.49
2018-09-22T03:48:31.911Z,21.5
2018-09-22T03:49:31.835Z,21.48
2018-09-22T03:50:32.366Z,21.49
2018-09-22T03:51:31.829Z,21.49
2018-09-22T03:52:31.850Z,21.48
2018-09-22T03:53:31.902Z,21.48
2018-09-22T03:57:59.339Z,21.47
2018-09-22T03:58:59.179Z,21.47
2018-09-22T03:59:59.469Z,21.49
2018-09-22T04:00:59.221Z,21.48
2018-09-22T04:01:59.243Z,21.47
2018-09-22T04:02:59.234Z,21.48
2018-09-22T04:03:59.264Z,21.49
2018-09-22T04:04:59.270Z,21.49
2018-09-22T04:05:59.091Z,21.48
2018-09-22T04:06:59.111Z,21.47
2018-09-22T04:07:59.089Z,21.48
2018-09-22T04:12:27.024Z,21.48
2018-09-22T04:13:26.641Z,21.47
2018-09-22T04:14:26.859Z,21.47
2018-09-22T04:15:26.429Z,21.46
2018-09-22T04:16:26.354Z,21.47
2018-09-22T04:17:26.337Z,21.47
2018-09-22T04:18:26.410Z,21.47
2018-09-22T04:19:26.347Z,21.47
2018-09-22T04:20:26.521Z,21.46
2018-09-22T04:21:26.356Z,21.46
2018-09-22T04:22:26.701Z,21.46
2018-09-22T04:26:54.041Z,21.46
2018-09-22T04:27:54.029Z,21.46
2018-09-22T04:28:53.929Z,21.46
2018-09-22T04:29:53.928Z,21.45
2018-09-22T04:30:54.054Z,21.45
2018-09-22T04:31:54.451Z,21.46
2018-09-22T04:32:54.077Z,21.46
2018-09-22T04:33:53.836Z,21.46
2018-09-22T04:34:53.730Z,21.45
2018-09-22T04:35:53.925Z,21.44
2018-09-22T04:36:53.745Z,21.45
2018-09-22T04:39:21.412Z,21.43
2018-09-22T04:40:21.264Z,21.44
2018-09-22T04:41:21.377Z,21.44
2018-09-22T04:42:21.188Z,21.43
2018-09-22T04:43:21.732Z,21.43
2018-09-22T04:44:21.135Z,21.44
2018-09-22T04:45:21.647Z,21.45
2018-09-22T04:46:21.182Z,21.42
2018-09-22T04:47:21.215Z,21.43
2018-09-22T04:48:21.291Z,21.43
2018-09-22T04:49:21.097Z,21.42
2018-09-22T04:51:43.258Z,21.43
2018-09-22T04:52:42.983Z,21.43
2018-09-22T04:53:42.890Z,21.43
2018-09-22T04:54:42.854Z,21.43
2018-09-22T04:55:42.962Z,21.43
2018-09-22T04:56:43.085Z,21.42
2018-09-22T04:57:42.890Z,21.41
2018-09-22T04:58:42.913Z,21.42
2018-09-22T04:59:42.989Z,21.43
2018-09-22T05:00:42.913Z,21.42
2018-09-22T05:01:42.750Z,21.41
2018-09-22T05:04:04.554Z,21.42
2018-09-22T05:05:04.262Z,21.43
2018-09-22T05:06:04.545Z,21.43
2018-09-22T05:07:04.525Z,21.43
2018-09-22T05:08:04.692Z,21.31
2018-09-22T05:09:04.540Z,21.15
2018-09-22T05:10:04.325Z,20.93
2018-09-22T05:11:04.632Z,20.92
2018-09-22T05:12:04.617Z,20.7
2018-09-22T05:13:04.586Z,20.67
2018-09-22T05:14:04.603Z,20.36
2018-09-22T05:18:26.379Z,19.9
2018-09-22T05:19:26.230Z,19.93
2018-09-22T05:20:26.242Z,19.82
2018-09-22T05:21:26.266Z,19.71
2018-09-22T05:22:26.491Z,19.64
2018-09-22T05:23:26.345Z,19.72
2018-09-22T05:24:26.310Z,19.59
2018-09-22T05:25:26.336Z,19.51
2018-09-22T05:26:26.374Z,19.48
2018-09-22T05:27:26.435Z,19.52
2018-09-22T05:28:26.409Z,19.48
2018-09-22T05:32:53.474Z,19.36
2018-09-22T05:33:53.493Z,19.28
2018-09-22T05:34:53.451Z,19.23
2018-09-22T05:35:53.448Z,19.17
2018-09-22T05:36:53.544Z,19.05
2018-09-22T05:37:53.516Z,19.01
2018-09-22T05:38:53.567Z,18.9
2018-09-22T05:39:53.574Z,18.95
2018-09-22T05:40:53.664Z,18.91
2018-09-22T05:41:53.598Z,18.93
2018-09-22T05:42:53.641Z,18.92
2018-09-22T05:47:21.066Z,18.97
2018-09-22T05:48:21.079Z,18.95
2018-09-22T05:49:21.358Z,18.99
2018-09-22T05:50:21.073Z,18.99
2018-09-22T05:51:21.379Z,19
2018-09-22T05:52:21.395Z,18.99
2018-09-22T05:53:21.500Z,19.03
2018-09-22T05:54:21.228Z,19.01
2018-09-22T05:55:21.223Z,18.99
2018-09-22T05:56:21.186Z,19.01
2018-09-22T05:57:21.234Z,19.01
2018-09-22T05:59:48.447Z,19.02
2018-09-22T06:00:48.238Z,18.93
2018-09-22T06:01:48.992Z,18.9
2018-09-22T06:02:48.252Z,18.87
2018-09-22T06:03:48.380Z,18.76
2018-09-22T06:04:48.619Z,18.76
2018-09-22T06:05:48.413Z,18.71
2018-09-22T06:06:48.542Z,18.76
2018-09-22T06:07:48.412Z,18.83
2018-09-22T06:08:48.333Z,18.64
2018-09-22T06:09:48.486Z,18.68
2018-09-22T06:14:15.513Z,18.75
2018-09-22T06:15:15.954Z,18.67
2018-09-22T06:16:15.683Z,18.61
2018-09-22T06:17:15.845Z,18.55
2018-09-22T06:18:15.589Z,18.57
2018-09-22T06:19:15.556Z,18.55
2018-09-22T06:20:15.732Z,18.53
2018-09-22T06:21:15.612Z,18.57
2018-09-22T06:22:15.796Z,18.44
2018-09-22T06:23:15.931Z,18.46
2018-09-22T06:24:15.706Z,18.54
2018-09-22T06:26:42.918Z,18.42
2018-09-22T06:27:43.142Z,18.37
2018-09-22T06:28:43.248Z,18.39
2018-09-22T06:29:43.016Z,18.48
2018-09-22T06:30:43.189Z,18.35
2018-09-22T06:31:43.202Z,18.34
2018-09-22T06:32:43.263Z,18.38
2018-09-22T06:33:43.108Z,18.44
2018-09-22T06:34:43.231Z,18.41
2018-09-22T06:35:43.206Z,18.4
2018-09-22T06:36:43.195Z,18.3
2018-09-22T06:41:10.486Z,18.4
2018-09-22T06:42:10.690Z,18.42
2018-09-22T06:43:10.321Z,18.44
2018-09-22T06:44:10.349Z,18.48
2018-09-22T06:45:10.672Z,18.6
2018-09-22T06:46:10.406Z,18.65
2018-09-22T06:47:10.398Z,18.72
2018-09-22T06:48:10.422Z,18.77
2018-09-22T06:49:10.464Z,18.82
2018-09-22T06:50:10.494Z,18.88
2018-09-22T06:51:10.406Z,18.92
2018-09-22T06:55:37.616Z,19.09
2018-09-22T06:56:38.006Z,19.14
2018-09-22T06:57:37.813Z,19.19
2018-09-22T06:58:37.789Z,19.22
2018-09-22T06:59:37.737Z,19.25
2018-09-22T07:00:37.861Z,19.28
2018-09-22T07:01:37.804Z,19.31
2018-09-22T07:02:37.874Z,19.32
2018-09-22T07:03:37.724Z,19.35
2018-09-22T07:04:37.637Z,19.38
2018-09-22T07:05:37.777Z,19.4
2018-09-22T07:07:59.214Z,19.44
2018-09-22T07:08:59.550Z,19.48
2018-09-22T07:09:59.501Z,19.49
2018-09-22T07:10:59.456Z,19.51
2018-09-22T07:11:59.615Z,19.52
2018-09-22T07:12:59.344Z,19.55
2018-09-22T07:13:59.537Z,19.55
2018-09-22T07:14:59.249Z,19.57
2018-09-22T07:15:59.921Z,19.59
2018-09-22T07:16:59.596Z,19.6
2018-09-22T07:17:59.298Z,19.61
2018-09-22T07:22:21.044Z,19.66
2018-09-22T07:23:20.898Z,19.68
2018-09-22T07:24:20.937Z,19.69
2018-09-22T07:25:20.927Z,19.71
2018-09-22T07:26:20.659Z,19.72
2018-09-22T07:27:20.793Z,19.73
2018-09-22T07:28:20.669Z,19.74
2018-09-22T07:29:21.226Z,19.75
2018-09-22T07:30:20.850Z,19.77
2018-09-22T07:31:20.852Z,19.78
2018-09-22T07:32:20.972Z,19.78
2018-09-22T07:36:42.691Z,19.82
2018-09-22T07:37:43.293Z,19.83
2018-09-22T07:38:42.906Z,19.85
2018-09-22T07:39:42.863Z,19.85
2018-09-22T07:40:42.988Z,19.87
2018-09-22T07:41:43.160Z,19.88
2018-09-22T07:42:43.272Z,19.89
2018-09-22T07:43:43.043Z,19.9
2018-09-22T07:44:42.882Z,19.91
2018-09-22T07:45:42.910Z,19.92
2018-09-22T07:46:43.195Z,19.92
2018-09-22T07:49:04.599Z,19.93
2018-09-22T07:50:04.856Z,19.95
2018-09-22T07:51:04.704Z,19.96
2018-09-22T07:52:04.595Z,19.96
2018-09-22T07:53:04.867Z,19.97
2018-09-22T07:54:04.830Z,19.98
2018-09-22T07:55:04.798Z,19.99
2018-09-22T07:56:04.351Z,19.97
2018-09-22T07:57:04.755Z,20.01
2018-09-22T07:58:04.752Z,20.01
2018-09-22T07:59:04.538Z,20.02
2018-09-22T08:03:26.259Z,20.04
2018-09-22T08:04:26.223Z,20.05
2018-09-22T08:05:26.549Z,20.06
2018-09-22T08:06:26.215Z,20.07
2018-09-22T08:07:26.268Z,20.06
2018-09-22T08:08:26.288Z,20.07
2018-09-22T08:09:26.281Z,20.08
2018-09-22T08:10:26.294Z,20.08
2018-09-22T08:11:26.325Z,20.09
2018-09-22T08:12:26.352Z,20.09
2018-09-22T08:13:26.306Z,20.09
2018-09-22T08:17:48.004Z,20.12
2018-09-22T08:18:48.288Z,20.12
2018-09-22T08:19:48.628Z,20.13
2018-09-22T08:20:48.157Z,20.13
2018-09-22T08:21:48.219Z,20.13
2018-09-22T08:22:48.052Z,20.13
2018-09-22T08:23:48.178Z,20.14
2018-09-22T08:24:47.840Z,20.14
2018-09-22T08:25:48.171Z,20.15
2018-09-22T08:26:48.319Z,20.15
2018-09-22T08:27:48.541Z,20.15
2018-09-22T08:32:09.467Z,20.17
2018-09-22T08:33:09.637Z,20.18
2018-09-22T08:34:09.803Z,20.18
2018-09-22T08:35:09.821Z,20.18
2018-09-22T08:36:09.872Z,20.18
2018-09-22T08:37:09.698Z,20.19
2018-09-22T08:38:09.765Z,20.2
2018-09-22T08:39:09.703Z,20.19
2018-09-22T08:40:09.714Z,20.2
2018-09-22T08:41:09.889Z,20.2
2018-09-22T08:42:09.709Z,20.21
2018-09-22T08:46:30.894Z,20.22
2018-09-22T08:47:30.945Z,20.23
2018-09-22T08:48:31.066Z,20.23
2018-09-22T08:49:31.392Z,20.23
2018-09-22T08:50:30.997Z,20.24
2018-09-22T08:51:31.001Z,20.25
2018-09-22T08:52:31.152Z,20.24
2018-09-22T08:53:31.169Z,20.24
2018-09-22T08:54:31.019Z,20.25
2018-09-22T08:55:31.220Z,20.25
2018-09-22T08:56:31.216Z,20.25
2018-09-22T08:58:53.206Z,20.27
2018-09-22T08:59:53.511Z,20.27
2018-09-22T09:00:53.184Z,20.27
2018-09-22T09:01:53.275Z,20.28
2018-09-22T09:02:53.603Z,20.27
2018-09-22T09:03:53.233Z,20.28
2018-09-22T09:04:53.426Z,20.29
2018-09-22T09:05:52.950Z,20.29
2018-09-22T09:06:53.223Z,20.29
2018-09-22T09:07:37.239Z,20.42
2018-09-22T09:08:36.911Z,20.45
2018-09-22T09:09:37.295Z,20.46
2018-09-22T09:10:37.226Z,20.49
2018-09-22T09:11:37.169Z,20.51
2018-09-22T09:12:37.248Z,20.52
2018-09-22T09:13:37.368Z,20.52
2018-09-22T09:14:37.294Z,20.54
2018-09-22T09:15:37.855Z,20.57
2018-09-22T09:16:37.155Z,20.57
2018-09-22T09:17:38.058Z,20.61
2018-09-22T09:20:07.649Z,20.63
2018-09-22T09:21:07.563Z,20.62
2018-09-22T09:22:07.674Z,20.66
2018-09-22T09:23:07.504Z,20.66
2018-09-22T09:24:07.490Z,20.69
2018-09-22T09:25:07.436Z,20.71
2018-09-22T09:26:07.532Z,20.73
2018-09-22T09:27:07.535Z,20.74
2018-09-22T09:28:07.559Z,20.76
2018-09-22T09:29:07.508Z,20.78
2018-09-22T09:30:07.710Z,20.78
2018-09-22T09:37:08.558Z,20.87
2018-09-22T09:38:22.149Z,20.86
2018-09-22T09:39:22.269Z,20.87
2018-09-22T09:40:22.053Z,20.88
2018-09-22T09:41:21.896Z,20.88
2018-09-22T09:42:22.260Z,20.89
2018-09-22T09:43:22.132Z,20.9
2018-09-22T09:44:22.267Z,20.9
2018-09-22T09:45:22.264Z,20.89
2018-09-22T09:46:21.913Z,20.91
2018-09-22T09:47:22.024Z,20.91
2018-09-22T09:48:22.315Z,20.93
2018-09-22T09:52:49.409Z,20.97
2018-09-22T10:31:33.779Z,20.81
2018-09-22T10:33:07.300Z,20.79
2018-09-22T10:34:07.370Z,20.74
2018-09-22T10:35:07.862Z,20.72
2018-09-22T10:36:07.577Z,20.71
2018-09-22T10:37:07.390Z,20.7
2018-09-22T10:38:07.631Z,20.68
2018-09-22T10:39:07.721Z,20.67
2018-09-22T10:40:07.538Z,20.72
2018-09-22T10:41:08.027Z,20.74
2018-09-22T10:42:07.701Z,20.76
2018-09-22T10:43:07.585Z,20.79
2018-09-22T10:44:07.710Z,20.8
2018-09-22T10:45:07.642Z,20.83
2018-09-22T10:46:07.766Z,20.84
2018-09-22T10:47:07.695Z,20.87
2018-09-22T10:48:07.789Z,20.88
2018-09-22T10:49:07.723Z,20.9
2018-09-22T10:50:07.893Z,20.92
2018-09-22T10:51:07.809Z,20.94
2018-09-22T10:52:07.796Z,20.95
2018-09-22T10:53:07.908Z,20.97
2018-09-22T10:54:07.768Z,20.98
2018-09-22T10:55:07.761Z,21
2018-09-22T10:56:07.689Z,21.01
2018-09-22T10:57:07.827Z,21.03
2018-09-22T10:58:07.937Z,21.04
2018-09-22T10:59:07.508Z,21.05
2018-09-22T11:00:07.588Z,21.05
2018-09-22T11:01:07.985Z,21.08
2018-09-22T11:02:07.767Z,21.1
2018-09-22T11:03:07.566Z,21.12
2018-09-22T11:04:07.974Z,21.12
2018-09-22T11:05:08.248Z,21.14
2018-09-22T11:06:07.979Z,21.15
2018-09-22T11:07:07.791Z,21.16
2018-09-22T11:08:08.419Z,21.15
2018-09-22T11:09:08.016Z,21.17
2018-09-22T11:10:07.791Z,21.18
2018-09-22T11:11:07.790Z,21.18
2018-09-22T11:12:07.791Z,21.21
2018-09-22T11:13:07.842Z,21.21
2018-09-22T11:14:07.603Z,21.22
2018-09-22T11:15:07.773Z,21.23
2018-09-22T11:16:07.688Z,21.23
2018-09-22T11:17:07.790Z,21.25
2018-09-22T11:18:07.888Z,21.26
2018-09-22T11:19:08.089Z,21.27
2018-09-22T11:20:07.786Z,21.27
2018-09-22T11:21:07.601Z,21.28
2018-09-22T11:22:07.919Z,21.28
2018-09-22T11:23:07.824Z,21.29
2018-09-22T11:24:07.989Z,21.29
2018-09-22T11:25:07.716Z,21.31
2018-09-22T11:26:07.788Z,21.32
2018-09-22T11:27:07.947Z,21.31
2018-09-22T11:28:07.648Z,21.32
2018-09-22T11:29:08.053Z,21.32
2018-09-22T11:30:07.666Z,21.27
2018-09-22T11:31:07.858Z,21.26
2018-09-22T11:32:07.774Z,21.25
2018-09-22T11:33:07.872Z,21.25
2018-09-22T11:34:08.001Z,21.25
2018-09-22T11:35:07.754Z,21.24
2018-09-22T11:36:07.754Z,21.23
2018-09-22T11:37:07.927Z,21.23
2018-09-22T11:38:07.923Z,21.21
2018-09-22T11:39:07.796Z,21.2
2018-09-22T11:40:07.755Z,21.2
2018-09-22T11:41:07.913Z,21.18
2018-09-22T11:42:07.871Z,21.17
2018-09-22T11:43:07.704Z,21.18
2018-09-22T11:44:08.156Z,21.16
2018-09-22T11:45:07.840Z,21.16
2018-09-22T11:46:07.846Z,21.15
2018-09-22T11:47:08.091Z,21.15
2018-09-22T11:48:07.910Z,21.15
2018-09-22T11:49:07.480Z,21.15
2018-09-22T11:50:07.657Z,21.15
2018-09-22T11:51:07.529Z,21.15
2018-09-22T11:52:07.921Z,21.15
2018-09-22T11:53:07.550Z,21.15
2018-09-22T11:54:07.572Z,21.15
2018-09-22T11:55:07.523Z,21.14
2018-09-22T11:56:07.843Z,21.15
2018-09-22T11:57:07.997Z,21.14
2018-09-22T11:58:07.790Z,21.13
2018-09-22T11:59:07.721Z,21.14
2018-09-22T12:00:07.703Z,21.12
2018-09-22T12:01:07.602Z,21.11
2018-09-22T12:02:07.714Z,21.1
2018-09-22T12:03:07.602Z,21.09
2018-09-22T12:04:07.697Z,21.08
2018-09-22T12:05:07.658Z,21.1
2018-09-22T12:06:07.841Z,21.09
2018-09-22T12:07:08.023Z,21.07
2018-09-22T12:08:07.735Z,21.08
2018-09-22T12:09:07.923Z,21.07
2018-09-22T12:10:07.503Z,21.08
2018-09-22T12:11:07.604Z,21.07
2018-09-22T12:12:07.630Z,21.07
2018-09-22T12:13:07.637Z,21.05
2018-09-22T12:14:07.609Z,21.05
2018-09-22T12:15:07.441Z,21.05
2018-09-22T12:16:07.534Z,21.05
2018-09-22T12:17:07.541Z,21.05
2018-09-22T12:18:07.586Z,21.04
2018-09-22T12:19:07.957Z,21.03
2018-09-22T12:20:07.716Z,21.03
2018-09-22T12:21:07.606Z,21.05
2018-09-22T12:22:07.730Z,21.1
2018-09-22T12:23:07.729Z,21.15
2018-09-22T12:24:07.637Z,21.11
2018-09-22T12:25:07.850Z,21.15
2018-09-22T12:26:07.833Z,21.17
2018-09-22T12:27:07.979Z,21.18
2018-09-22T12:28:13.255Z,21.2
2018-09-22T12:29:13.174Z,21.2
2018-09-22T12:30:13.246Z,21.19
2018-09-22T12:30:56.525Z,21.22
2018-09-22T12:31:48.153Z,21.2
2018-09-22T12:32:36.626Z,21.19
2018-09-22T12:33:36.982Z,21.2
2018-09-22T12:34:36.902Z,21.2
2018-09-22T12:35:37.091Z,21.21
2018-09-22T12:36:36.934Z,21.21
2018-09-22T12:37:36.752Z,21.2
2018-09-22T12:38:36.773Z,21.22
2018-09-22T12:39:36.765Z,21.21
2018-09-22T12:40:36.764Z,21.22
2018-09-22T12:41:36.949Z,21.21
2018-09-22T12:42:36.808Z,21.21
2018-09-22T12:43:36.960Z,21.21
2018-09-22T12:44:36.978Z,21.21
2018-09-22T12:45:36.714Z,21.2
2018-09-22T12:46:37.234Z,21.22
2018-09-22T12:47:43.946Z,21.2
2018-09-22T12:48:44.050Z,21.2
2018-09-22T12:49:44.232Z,21.2
2018-09-22T12:50:44.377Z,21.2
2018-09-22T12:51:44.049Z,21.21
2018-09-22T12:52:44.004Z,21.2
2018-09-22T12:53:44.177Z,21.21
2018-09-22T12:54:44.017Z,21.21
2018-09-22T12:55:44.058Z,21.21
2018-09-22T12:56:44.226Z,21.22
2018-09-22T12:57:44.036Z,21.22
2018-09-22T12:58:17.099Z,21.21
2018-09-22T12:59:17.311Z,21.21
2018-09-22T13:00:16.695Z,21.19
2018-09-22T13:01:16.817Z,21.16
2018-09-22T13:02:17.342Z,21.16
2018-09-22T13:03:16.681Z,21.13
2018-09-22T13:04:16.694Z,21.12
2018-09-22T13:05:16.787Z,21.11
2018-09-22T13:06:16.913Z,21.1
2018-09-22T13:07:16.891Z,21.08
2018-09-22T13:08:16.993Z,21.11
2018-09-22T13:09:17.232Z,21.14
2018-09-22T13:10:16.670Z,21.15
2018-09-22T13:11:16.985Z,21.16
2018-09-22T13:12:16.770Z,21.18
2018-09-22T13:13:17.011Z,21.19
2018-09-22T13:14:16.862Z,21.2
2018-09-22T13:15:17.005Z,21.21
2018-09-22T13:16:16.963Z,21.2
2018-09-22T13:17:16.915Z,21.23
2018-09-22T13:18:16.887Z,21.22
2018-09-22T13:19:17.039Z,21.24
2018-09-22T13:20:17.251Z,21.23
2018-09-22T13:21:16.856Z,21.24
2018-09-22T13:22:17.046Z,21.23
2018-09-22T13:23:17.055Z,21.23
2018-09-22T13:24:16.702Z,21.23
2018-09-22T13:25:16.852Z,21.24
2018-09-22T13:26:16.668Z,21.24
2018-09-22T13:27:09.992Z,21.24
2018-09-22T13:28:09.715Z,21.24
2018-09-22T13:29:09.641Z,21.23
2018-09-22T13:30:09.636Z,21.24
2018-09-22T13:31:09.638Z,21.23
2018-09-22T13:32:09.409Z,21.24
2018-09-22T13:33:09.470Z,21.25
2018-09-22T13:34:09.166Z,21.26
2018-09-22T13:35:09.105Z,21.26
2018-09-22T13:36:09.048Z,21.27
2018-09-22T13:37:09.184Z,21.28
2018-09-22T13:39:36.701Z,21.3
2018-09-22T13:40:37.025Z,21.32
2018-09-22T13:41:37.010Z,21.31
2018-09-22T13:42:36.825Z,21.31
2018-09-22T13:43:36.732Z,21.32
2018-09-22T13:45:12.113Z,21.33
2018-09-22T13:46:12.187Z,21.34
2018-09-22T13:47:12.193Z,21.34
2018-09-22T13:48:11.816Z,21.35
2018-09-22T13:49:11.889Z,21.34
2018-09-22T13:50:11.788Z,21.35
2018-09-22T13:51:12.098Z,21.35
2018-09-22T13:53:05.451Z,21.37
2018-09-22T13:54:05.724Z,21.37
2018-09-22T13:55:05.681Z,21.37
2018-09-22T13:56:05.513Z,21.37
2018-09-22T13:57:05.690Z,21.29
2018-09-22T13:58:05.558Z,21.29
2018-09-22T13:59:05.661Z,21.28
2018-09-22T14:00:05.813Z,21.27
2018-09-22T14:01:05.777Z,21.26
2018-09-22T14:02:06.106Z,21.25
2018-09-22T14:03:05.754Z,21.25
2018-09-22T14:05:33.261Z,21.22
2018-09-22T14:06:32.924Z,21.22
2018-09-22T14:07:32.964Z,21.21
2018-09-22T14:08:33.333Z,21.22
2018-09-22T14:09:33.450Z,21.2
2018-09-22T14:10:33.316Z,21.19
2018-09-22T14:11:33.172Z,21.2
2018-09-22T14:12:32.997Z,21.19
2018-09-22T14:13:33.164Z,21.17
2018-09-22T14:14:33.162Z,21.18
2018-09-22T14:15:33.086Z,21.16
2018-09-22T14:18:00.215Z,21.16
2018-09-22T14:19:00.569Z,21.17
2018-09-22T14:20:00.559Z,21.15
2018-09-22T14:21:00.261Z,21.14
2018-09-22T14:22:00.473Z,21.14
2018-09-22T14:23:00.081Z,21.14
2018-09-22T14:24:00.266Z,21.14
2018-09-22T14:25:00.616Z,21.14
2018-09-22T14:26:00.579Z,21.13
2018-09-22T14:27:00.434Z,21.12
2018-09-22T14:28:00.568Z,21.11
2018-09-22T14:30:28.586Z,21.1
2018-09-22T14:31:27.741Z,21.1
2018-09-22T14:32:27.801Z,21.08
2018-09-22T14:33:28.011Z,21.07
2018-09-22T14:34:28.020Z,21.09
2018-09-22T14:35:27.930Z,21.05
2018-09-22T14:36:27.675Z,21.05
2018-09-22T14:37:27.798Z,21.06
2018-09-22T14:38:27.731Z,21.06
2018-09-22T14:39:28.163Z,21.05
2018-09-22T14:40:27.808Z,21.05
2018-09-22T14:42:55.002Z,21.02
2018-09-22T14:43:55.040Z,21
2018-09-22T14:44:55.068Z,21.01
2018-09-22T14:45:55.358Z,21
2018-09-22T14:46:55.008Z,20.99
2018-09-22T14:47:55.144Z,21
2018-09-22T14:48:55.236Z,20.97
2018-09-22T14:49:55.213Z,20.97
2018-09-22T14:50:55.086Z,20.97
2018-09-22T14:51:55.576Z,20.96
2018-09-22T14:52:55.128Z,20.97
2018-09-22T14:55:22.260Z,20.96
2018-09-22T14:56:22.422Z,20.95
2018-09-22T14:57:22.450Z,20.94
2018-09-22T14:58:22.450Z,20.96
2018-09-22T14:59:22.539Z,20.96
2018-09-22T15:00:22.389Z,20.96
2018-09-22T15:01:22.533Z,20.94
2018-09-22T15:02:22.402Z,20.95
2018-09-22T15:03:22.639Z,20.93
2018-09-22T15:04:22.556Z,20.92
2018-09-22T15:05:22.573Z,20.91
2018-09-22T15:07:49.947Z,20.89
2018-09-22T15:08:49.746Z,20.9
2018-09-22T15:09:49.689Z,20.88
2018-09-22T15:10:49.727Z,20.89
2018-09-22T15:11:49.733Z,20.89
2018-09-22T15:12:49.687Z,20.88
2018-09-22T15:13:49.774Z,20.88
2018-09-22T15:14:49.872Z,20.88
2018-09-22T15:15:49.991Z,20.87
2018-09-22T15:16:50.998Z,20.86
2018-09-22T15:17:50.145Z,20.88
2018-09-22T15:20:17.122Z,20.86
2018-09-22T15:21:17.164Z,20.87
2018-09-22T15:22:17.185Z,20.84
2018-09-22T15:23:17.367Z,20.86
2018-09-22T15:24:17.206Z,20.85
2018-09-22T15:25:17.307Z,20.86
2018-09-22T15:26:17.000Z,20.85
2018-09-22T15:27:17.084Z,20.85
2018-09-22T15:28:17.163Z,20.84
2018-09-22T15:29:17.155Z,20.84
2018-09-22T15:30:17.271Z,20.83
2018-09-22T15:32:44.392Z,20.83
2018-09-22T15:33:44.573Z,20.81
2018-09-22T15:34:44.547Z,20.82
2018-09-22T15:35:44.434Z,20.82